createdAt,value
2022-12-12T00:00:26.938Z,20.42
2022-12-12T00:02:53.478Z,19.17
2022-12-12T00:05:20.192Z,21.63
2022-12-12T00:07:46.647Z,19.40
2022-12-12T00:10:13.624Z,18.83
2022-12-12T00:12:40.264Z,20.13
2022-12-12T00:15:07.527Z,19.25
2022-12-12T00:17:34.344Z,21.13
2022-12-12T00:20:00.804Z,20.48
2022-12-12T00:22:27.281Z,17.38
2022-12-12T00:24:53.723Z,19.08
2022-12-12T00:27:20.194Z,18.63
2022-12-12T00:29:52.314Z,19.50
2022-12-12T00:32:18.997Z,21.42
2022-12-12T00:34:45.465Z,20.08
2022-12-12T00:37:11.971Z,19.10
2022-12-12T00:39:38.538Z,18.80
2022-12-12T00:42:05.116Z,21.03
2022-12-12T00:44:31.650Z,17.55
2022-12-12T00:46:58.168Z,23.42
2022-12-12T00:49:24.604Z,17.85
2022-12-12T00:51:51.092Z,21.13
2022-12-12T00:54:17.594Z,18.93
2022-12-12T00:56:44.631Z,16.85
2022-12-12T00:59:11.516Z,18.65
2022-12-12T01:01:38.013Z,20.98
2022-12-12T01:04:04.910Z,19.88
2022-12-12T01:06:31.778Z,21.93
2022-12-12T01:08:58.657Z,19.65
2022-12-12T01:11:26.478Z,21.35
2022-12-12T01:13:54.507Z,21.80
2022-12-12T01:16:21.902Z,19.75
2022-12-12T01:18:48.845Z,21.13
2022-12-12T01:21:17.799Z,18.10
2022-12-12T01:23:44.792Z,23.30
2022-12-12T01:26:15.709Z,18.50
2022-12-12T01:28:42.652Z,22.20
2022-12-12T01:31:09.947Z,21.30
2022-12-12T01:33:36.569Z,21.40
2022-12-12T01:36:03.751Z,19.90
2022-12-12T01:38:30.193Z,23.95
2022-12-12T01:40:56.813Z,23.98
2022-12-12T01:43:25.377Z,17.63
2022-12-12T01:45:58.204Z,20.92
2022-12-12T01:48:33.518Z,20.77
2022-12-12T01:51:02.820Z,20.83
2022-12-12T01:53:31.467Z,20.00
2022-12-12T01:55:59.000Z,21.80
2022-12-12T01:58:26.203Z,21.48
2022-12-12T02:00:52.735Z,21.02
2022-12-12T02:03:19.426Z,24.00
2022-12-12T02:05:51.310Z,22.48
2022-12-12T02:08:21.235Z,22.73
2022-12-12T02:10:47.891Z,20.90
2022-12-12T02:13:22.571Z,22.15
2022-12-12T02:16:10.633Z,20.20
2022-12-12T02:19:14.194Z,23.98
2022-12-12T02:22:01.335Z,22.70
2022-12-12T02:24:46.092Z,19.92
2022-12-12T02:27:31.060Z,18.98
2022-12-12T02:30:19.350Z,21.38
2022-12-12T02:33:14.542Z,19.85
2022-12-12T02:36:09.858Z,18.37
2022-12-12T02:38:56.020Z,21.80
2022-12-12T02:41:28.332Z,20.25
2022-12-12T02:43:59.247Z,20.45
2022-12-12T02:46:32.885Z,21.98
2022-12-12T02:49:04.735Z,22.33
2022-12-12T02:51:33.084Z,22.33
2022-12-12T02:54:00.438Z,24.25
2022-12-12T02:56:45.287Z,20.77
2022-12-12T02:59:17.670Z,21.55
2022-12-12T03:01:46.923Z,20.57
2022-12-12T03:04:39.948Z,22.52
2022-12-12T03:07:34.895Z,21.83
2022-12-12T03:10:11.948Z,23.40
2022-12-12T03:13:03.597Z,20.05
2022-12-12T03:15:50.921Z,22.80
2022-12-12T03:18:43.541Z,22.98
2022-12-12T03:21:37.412Z,20.48
2022-12-12T03:24:16.554Z,22.77
2022-12-12T03:26:45.856Z,20.02
2022-12-12T03:29:20.815Z,22.20
2022-12-12T03:31:54.472Z,22.65
2022-12-12T03:34:25.992Z,20.25
2022-12-12T03:36:57.899Z,23.05
2022-12-12T03:39:33.453Z,19.75
2022-12-12T03:42:06.721Z,21.53
2022-12-12T03:44:51.394Z,20.35
2022-12-12T03:47:27.784Z,21.67
2022-12-12T03:50:04.712Z,22.50
2022-12-12T03:52:37.445Z,23.38
2022-12-12T03:55:12.216Z,23.50
2022-12-12T03:57:47.560Z,19.73
2022-12-12T04:00:15.990Z,21.88
2022-12-12T04:02:52.125Z,23.42
2022-12-12T04:05:32.657Z,23.67
2022-12-12T04:08:08.652Z,24.60
2022-12-12T04:11:10.454Z,25.50
2022-12-12T04:13:59.108Z,23.85
2022-12-12T04:16:35.459Z,21.48
2022-12-12T04:19:09.370Z,23.58
2022-12-12T04:22:00.107Z,21.53
2022-12-12T04:24:43.903Z,18.55
2022-12-12T04:27:22.024Z,22.67
2022-12-12T04:29:55.516Z,20.38
2022-12-12T04:32:28.019Z,26.45
2022-12-12T04:34:57.760Z,22.93
2022-12-12T04:37:30.799Z,24.95
2022-12-12T04:40:05.710Z,21.15
2022-12-12T04:42:37.369Z,21.80
2022-12-12T04:45:09.469Z,22.17
2022-12-12T04:47:38.374Z,21.80
2022-12-12T04:50:08.461Z,23.13
2022-12-12T04:52:35.777Z,24.10
2022-12-12T04:55:11.281Z,22.50
2022-12-12T04:57:54.669Z,22.65
2022-12-12T05:00:23.007Z,23.37
2022-12-12T05:02:52.454Z,20.45
2022-12-12T05:05:27.456Z,21.17
2022-12-12T05:08:06.412Z,20.85
2022-12-12T05:10:33.184Z,22.20
2022-12-12T05:13:01.207Z,18.40
2022-12-12T05:15:28.995Z,18.45
2022-12-12T05:18:01.710Z,24.48
2022-12-12T05:20:28.149Z,20.17
2022-12-12T05:22:54.624Z,21.33
2022-12-12T05:25:21.137Z,23.80
2022-12-12T05:27:47.616Z,20.67
2022-12-12T05:30:14.331Z,22.13
2022-12-12T05:32:40.824Z,21.80
2022-12-12T05:35:08.594Z,21.75
2022-12-12T05:37:35.128Z,19.83
2022-12-12T05:40:01.616Z,19.10
2022-12-12T05:42:28.072Z,21.52
2022-12-12T05:44:54.660Z,23.20
2022-12-12T05:47:21.068Z,22.38
2022-12-12T05:49:47.680Z,21.23
2022-12-12T05:52:14.151Z,20.88
2022-12-12T05:54:40.636Z,19.83
2022-12-12T05:57:07.327Z,21.75
2022-12-12T05:59:33.782Z,20.73
2022-12-12T06:02:00.482Z,24.07
2022-12-12T06:04:27.043Z,20.90
2022-12-12T06:06:53.540Z,23.10
2022-12-12T06:09:19.992Z,20.40
2022-12-12T06:11:46.430Z,22.30
2022-12-12T06:14:12.871Z,24.13
2022-12-12T06:16:39.342Z,22.45
2022-12-12T06:19:06.144Z,16.50
2022-12-12T06:21:32.599Z,22.13
2022-12-12T06:23:59.151Z,21.80
2022-12-12T06:26:25.938Z,23.77
2022-12-12T06:28:52.378Z,21.75
2022-12-12T06:31:19.078Z,18.95
2022-12-12T06:33:45.675Z,24.40
2022-12-12T06:36:23.744Z,24.00
2022-12-12T06:38:55.868Z,19.60
2022-12-12T06:41:24.233Z,21.48
2022-12-12T06:43:51.347Z,20.95
2022-12-12T06:46:23.905Z,23.63
2022-12-12T06:48:50.688Z,19.10
2022-12-12T06:51:20.326Z,19.40
2022-12-12T06:53:47.556Z,20.52
2022-12-12T06:56:17.357Z,21.17
2022-12-12T06:58:44.251Z,23.13
2022-12-12T07:01:15.354Z,20.67
2022-12-12T07:03:42.149Z,20.43
2022-12-12T07:06:08.582Z,21.30
2022-12-12T07:08:35.585Z,18.55
2022-12-12T07:11:24.275Z,22.17
2022-12-12T07:13:51.971Z,19.05
2022-12-12T07:16:19.191Z,24.17
2022-12-12T07:18:46.203Z,28.15
2022-12-12T07:21:15.352Z,21.70
2022-12-12T07:23:41.918Z,30.80
2022-12-12T07:26:14.513Z,26.70
2022-12-12T07:28:41.659Z,19.43
2022-12-12T07:31:10.741Z,24.83
2022-12-12T07:33:43.451Z,21.85
2022-12-12T07:36:12.373Z,23.98
2022-12-12T07:38:39.741Z,21.48
2022-12-12T07:41:09.692Z,19.90
2022-12-12T07:43:43.886Z,23.15
2022-12-12T07:46:17.977Z,23.33
2022-12-12T07:48:44.747Z,27.00
2022-12-12T07:51:11.623Z,20.92
2022-12-12T07:53:38.169Z,23.30
2022-12-12T07:56:11.293Z,20.42
2022-12-12T07:58:38.724Z,21.25
2022-12-12T08:01:15.131Z,30.67
2022-12-12T08:03:43.112Z,25.88
2022-12-12T08:06:09.622Z,26.50
2022-12-12T08:08:36.175Z,27.05
2022-12-12T08:11:11.328Z,29.60
2022-12-12T08:13:39.047Z,22.50
2022-12-12T08:16:12.018Z,25.52
2022-12-12T08:18:38.546Z,26.63
2022-12-12T08:21:09.192Z,21.58
2022-12-12T08:23:35.664Z,27.00
2022-12-12T08:26:07.497Z,21.55
2022-12-12T08:28:34.548Z,25.85
2022-12-12T08:31:01.490Z,27.10
2022-12-12T08:33:28.459Z,28.10
2022-12-12T08:35:54.946Z,23.75
2022-12-12T08:38:21.548Z,27.00
2022-12-12T08:40:48.060Z,36.88
2022-12-12T08:43:14.578Z,32.80
2022-12-12T08:45:41.386Z,24.50
2022-12-12T08:48:08.383Z,28.02
2022-12-12T08:50:34.935Z,24.52
2022-12-12T08:53:01.665Z,27.88
2022-12-12T08:55:28.166Z,29.07
2022-12-12T08:57:54.671Z,23.55
2022-12-12T09:00:21.224Z,31.70
2022-12-12T09:02:47.839Z,31.55
2022-12-12T09:05:14.785Z,29.02
2022-12-12T09:07:41.531Z,24.60
2022-12-12T09:10:09.146Z,25.13
2022-12-12T09:12:41.416Z,29.65
2022-12-12T09:15:09.168Z,29.42
2022-12-12T09:17:35.685Z,30.05
2022-12-12T09:20:02.947Z,31.73
2022-12-12T09:22:29.485Z,33.00
2022-12-12T09:24:55.960Z,27.02
2022-12-12T09:27:22.405Z,29.60
2022-12-12T09:29:48.902Z,24.58
2022-12-12T09:32:16.671Z,29.77
2022-12-12T09:34:45.158Z,26.95
2022-12-12T09:37:11.600Z,27.85
2022-12-12T09:39:38.180Z,30.33
2022-12-12T09:42:32.087Z,27.17
2022-12-12T09:45:07.766Z,27.47
2022-12-12T09:47:43.048Z,28.70
2022-12-12T09:50:25.238Z,30.50
2022-12-12T09:52:54.237Z,29.25
2022-12-12T09:55:20.668Z,26.13
2022-12-12T09:57:52.451Z,28.47
2022-12-12T10:00:19.721Z,28.27
2022-12-12T10:03:04.937Z,31.83
2022-12-12T10:05:41.229Z,27.40
2022-12-12T10:08:30.211Z,24.60
2022-12-12T10:11:04.684Z,28.00
2022-12-12T10:13:34.805Z,31.33
2022-12-12T10:16:14.901Z,22.60
2022-12-12T10:18:45.507Z,27.30
2022-12-12T10:21:21.422Z,26.52
2022-12-12T10:23:51.507Z,24.00
2022-12-12T10:26:19.627Z,23.60
2022-12-12T10:28:50.185Z,26.50
2022-12-12T10:31:19.438Z,26.48
2022-12-12T10:34:01.635Z,27.05
2022-12-12T10:36:54.612Z,25.33
2022-12-12T10:39:39.655Z,23.83
2022-12-12T10:42:24.779Z,23.38
2022-12-12T10:44:57.213Z,21.80
2022-12-12T10:47:24.075Z,25.60
2022-12-12T10:49:58.324Z,22.40
2022-12-12T10:52:24.783Z,21.23
2022-12-12T10:54:56.719Z,23.42
2022-12-12T10:57:25.666Z,20.92
2022-12-12T10:59:57.657Z,21.90
2022-12-12T11:02:30.441Z,22.07
2022-12-12T11:05:24.515Z,22.48
2022-12-12T11:08:03.846Z,22.52
2022-12-12T11:10:37.819Z,22.02
2022-12-12T11:13:10.375Z,24.30
2022-12-12T11:15:52.590Z,20.93
2022-12-12T11:18:23.057Z,20.55
2022-12-12T11:20:52.836Z,19.88
2022-12-12T11:23:24.118Z,22.10
2022-12-12T11:25:58.140Z,18.50
2022-12-12T11:28:28.412Z,22.20
2022-12-12T11:30:56.531Z,22.05
2022-12-12T11:33:45.630Z,24.45
2022-12-12T11:36:28.392Z,26.60
2022-12-12T11:38:56.968Z,24.23
2022-12-12T11:41:23.672Z,21.77
2022-12-12T11:43:50.083Z,22.42
2022-12-12T11:46:34.704Z,26.88
2022-12-12T11:49:03.756Z,24.10
2022-12-12T11:51:33.315Z,23.33
2022-12-12T11:54:00.985Z,26.87
2022-12-12T11:56:43.511Z,26.80
2022-12-12T11:59:18.933Z,24.13
2022-12-12T12:01:54.345Z,23.95
2022-12-12T12:04:26.956Z,26.45
2022-12-12T12:07:14.170Z,19.33
2022-12-12T12:09:54.779Z,21.92
2022-12-12T12:12:33.560Z,25.10
2022-12-12T12:15:20.293Z,23.45
2022-12-12T12:17:59.946Z,21.17
2022-12-12T12:20:47.613Z,21.03
2022-12-12T12:23:41.182Z,24.73
2022-12-12T12:26:12.008Z,20.90
2022-12-12T12:28:49.184Z,21.23
2022-12-12T12:31:40.547Z,20.48
2022-12-12T12:34:32.807Z,21.87
2022-12-12T12:37:19.459Z,20.40
2022-12-12T12:40:07.856Z,21.38
2022-12-12T12:42:49.888Z,18.27
2022-12-12T12:45:39.857Z,17.67
2022-12-12T12:48:12.393Z,18.30
2022-12-12T12:50:43.975Z,18.10
2022-12-12T12:53:28.981Z,21.05
2022-12-12T12:56:01.043Z,20.17
2022-12-12T12:58:40.304Z,19.45
2022-12-12T13:01:12.140Z,17.80
2022-12-12T13:03:47.394Z,19.13
2022-12-12T13:06:22.070Z,20.77
2022-12-12T13:09:01.924Z,17.45
2022-12-12T13:11:37.231Z,19.50
2022-12-12T13:14:37.868Z,16.03
2022-12-12T13:17:07.816Z,18.00
2022-12-12T13:19:40.853Z,17.98
2022-12-12T13:22:14.557Z,17.02
2022-12-12T13:25:11.819Z,19.83
2022-12-12T13:27:46.098Z,16.80
2022-12-12T13:30:18.867Z,17.50
2022-12-12T13:33:12.959Z,17.98
2022-12-12T13:35:47.797Z,17.58
2022-12-12T13:38:21.930Z,17.85
2022-12-12T13:41:00.821Z,17.80
2022-12-12T13:43:33.295Z,16.73
2022-12-12T13:46:27.223Z,17.92
2022-12-12T13:48:56.743Z,17.25
2022-12-12T13:51:32.327Z,15.02
2022-12-12T13:54:12.673Z,16.73
2022-12-12T13:57:04.155Z,14.38
2022-12-12T13:59:31.287Z,16.98
2022-12-12T14:02:18.006Z,18.88
2022-12-12T14:04:44.819Z,15.23
2022-12-12T14:07:17.741Z,15.67
2022-12-12T14:09:49.258Z,16.67
2022-12-12T14:12:32.200Z,22.08
2022-12-12T14:15:03.128Z,15.10
2022-12-12T14:17:40.044Z,14.50
2022-12-12T14:20:08.831Z,19.23
2022-12-12T14:22:38.184Z,15.65
2022-12-12T14:25:17.915Z,19.05
2022-12-12T14:27:50.428Z,18.02
2022-12-12T14:30:53.966Z,17.38
2022-12-12T14:33:32.619Z,16.03
2022-12-12T14:36:12.092Z,18.92
2022-12-12T14:39:09.029Z,21.02
2022-12-12T14:41:38.475Z,17.80
2022-12-12T14:44:36.148Z,17.77
2022-12-12T14:47:07.432Z,17.53
2022-12-12T14:49:33.891Z,18.25
2022-12-12T14:52:00.528Z,13.50
2022-12-12T14:54:27.387Z,15.60
2022-12-12T14:56:59.060Z,18.25
2022-12-12T14:59:29.851Z,17.90
2022-12-12T15:01:59.624Z,15.75
2022-12-12T15:04:29.179Z,18.88
2022-12-12T15:07:06.674Z,21.38
2022-12-12T15:09:35.608Z,22.55
2022-12-12T15:12:08.112Z,18.17
2022-12-12T15:14:34.619Z,16.70
2022-12-12T15:17:13.250Z,17.15
2022-12-12T15:19:44.651Z,17.55
2022-12-12T15:22:32.607Z,17.65
2022-12-12T15:25:01.969Z,17.93
2022-12-12T15:27:40.188Z,23.02
2022-12-12T15:30:33.173Z,16.80
2022-12-12T15:33:01.684Z,20.67
2022-12-12T15:35:28.181Z,18.63
2022-12-12T15:38:05.503Z,15.33
2022-12-12T15:40:34.145Z,15.70
2022-12-12T15:43:06.260Z,17.55
2022-12-12T15:45:38.931Z,16.73
2022-12-12T15:48:06.820Z,17.30
2022-12-12T15:50:38.668Z,18.57
2022-12-12T15:53:18.207Z,17.52
2022-12-12T15:56:01.653Z,13.88
2022-12-12T15:58:32.029Z,17.73
2022-12-12T16:01:05.326Z,15.30
2022-12-12T16:03:32.042Z,17.60
2022-12-12T16:06:18.758Z,16.65
2022-12-12T16:08:46.762Z,19.17
2022-12-12T16:11:32.655Z,21.13
2022-12-12T16:13:59.954Z,16.60
2022-12-12T16:16:48.521Z,16.80
2022-12-12T16:19:33.285Z,15.82
2022-12-12T16:22:16.163Z,15.15
2022-12-12T16:24:52.059Z,21.10
2022-12-12T16:27:18.833Z,16.77
2022-12-12T16:29:46.113Z,21.17
2022-12-12T16:32:16.858Z,36.60
2022-12-12T16:34:43.869Z,30.70
2022-12-12T16:37:15.720Z,26.08
2022-12-12T16:39:43.157Z,26.55
2022-12-12T16:42:14.236Z,21.17
2022-12-12T16:44:40.787Z,21.45
2022-12-12T16:47:20.496Z,24.98
2022-12-12T16:49:47.265Z,22.38
2022-12-12T16:52:16.464Z,18.85
2022-12-12T16:54:48.224Z,21.70
2022-12-12T16:57:19.216Z,23.75
2022-12-12T16:59:45.820Z,19.10
2022-12-12T17:02:25.472Z,22.10
2022-12-12T17:04:52.266Z,32.50
2022-12-12T17:07:19.067Z,30.50
2022-12-12T17:09:45.573Z,30.13
2022-12-12T17:12:13.175Z,39.22
2022-12-12T17:14:40.060Z,38.22
2022-12-12T17:17:06.936Z,42.15
2022-12-12T17:19:33.748Z,33.80
2022-12-12T17:22:00.645Z,32.10
2022-12-12T17:24:27.225Z,26.33
2022-12-12T17:26:53.705Z,23.98
2022-12-12T17:29:20.696Z,21.08
2022-12-12T17:31:47.485Z,21.73
2022-12-12T17:34:14.067Z,25.35
2022-12-12T17:36:40.566Z,20.88
2022-12-12T17:39:07.611Z,23.27
2022-12-12T17:41:34.094Z,20.70
2022-12-12T17:44:00.606Z,21.50
2022-12-12T17:46:28.679Z,20.67
2022-12-12T17:48:58.173Z,22.02
2022-12-12T17:51:25.183Z,28.70
2022-12-12T17:53:52.673Z,30.17
2022-12-12T17:56:22.068Z,47.13
2022-12-12T17:58:49.713Z,36.53
2022-12-12T18:01:26.908Z,37.80
2022-12-12T18:03:54.231Z,34.90
2022-12-12T18:06:22.018Z,38.75
2022-12-12T18:08:49.409Z,34.23
2022-12-12T18:11:18.658Z,32.80
2022-12-12T18:13:48.346Z,34.58
2022-12-12T18:16:15.002Z,28.23
2022-12-12T18:18:41.990Z,32.15
2022-12-12T18:21:23.640Z,40.63
2022-12-12T18:24:01.608Z,45.35
2022-12-12T18:26:28.481Z,48.38
2022-12-12T18:29:04.004Z,38.28
2022-12-12T18:31:31.123Z,37.78
2022-12-12T18:33:58.018Z,41.80
2022-12-12T18:36:27.397Z,30.02
2022-12-12T18:38:55.868Z,24.98
2022-12-12T18:41:24.494Z,29.77
2022-12-12T18:43:50.966Z,28.70
2022-12-12T18:46:19.658Z,28.87
2022-12-12T18:48:47.861Z,27.15
2022-12-12T18:51:15.565Z,26.77
2022-12-12T18:53:42.599Z,30.38
2022-12-12T18:56:11.999Z,33.05
2022-12-12T18:58:38.811Z,28.57
2022-12-12T19:01:13.030Z,27.95
2022-12-12T19:03:41.652Z,29.50
2022-12-12T19:06:11.574Z,34.25
2022-12-12T19:08:38.292Z,34.85
2022-12-12T19:11:06.310Z,29.67
2022-12-12T19:13:33.537Z,29.75
2022-12-12T19:16:07.747Z,28.85
2022-12-12T19:18:34.319Z,22.67
2022-12-12T19:21:09.969Z,22.50
2022-12-12T19:23:37.045Z,21.33
2022-12-12T19:26:08.388Z,27.02
2022-12-12T19:28:35.416Z,32.95
2022-12-12T19:31:10.214Z,28.55
2022-12-12T19:33:37.085Z,36.65
2022-12-12T19:36:16.104Z,42.73
2022-12-12T19:38:43.534Z,68.18
2022-12-12T19:41:11.151Z,54.80
2022-12-12T19:43:37.941Z,39.17
2022-12-12T19:46:10.490Z,38.40
2022-12-12T19:48:37.441Z,42.03
2022-12-12T19:51:06.296Z,41.20
2022-12-12T19:53:36.043Z,73.00
2022-12-12T19:56:02.456Z,46.40
2022-12-12T19:58:31.477Z,38.35
2022-12-12T20:01:08.898Z,41.43
2022-12-12T20:03:35.684Z,34.55
2022-12-12T20:06:04.773Z,29.98
2022-12-12T20:08:32.538Z,28.27
2022-12-12T20:11:13.295Z,32.30
2022-12-12T20:13:40.369Z,40.73
2022-12-12T20:16:17.911Z,35.55
2022-12-12T20:18:47.284Z,31.35
2022-12-12T20:21:29.844Z,34.92
2022-12-12T20:24:00.298Z,29.50
2022-12-12T20:26:29.366Z,33.37
2022-12-12T20:29:01.922Z,45.50
2022-12-12T20:31:31.220Z,49.47
2022-12-12T20:33:58.883Z,46.78
2022-12-12T20:36:31.010Z,37.92
2022-12-12T20:38:59.661Z,32.47
2022-12-12T20:41:28.665Z,34.30
2022-12-12T20:43:56.997Z,31.70
2022-12-12T20:46:26.900Z,26.58
2022-12-12T20:48:54.174Z,29.77
2022-12-12T20:51:53.418Z,26.27
2022-12-12T20:54:08.464Z,30.98
2022-12-12T20:56:35.560Z,24.67
2022-12-12T20:59:04.235Z,27.73
2022-12-12T21:01:33.479Z,24.20
2022-12-12T21:04:01.374Z,24.33
2022-12-12T21:06:33.665Z,25.10
2022-12-12T21:09:02.091Z,21.45
2022-12-12T21:11:29.477Z,24.27
2022-12-12T21:13:56.658Z,23.07
2022-12-12T21:16:30.023Z,20.35
2022-12-12T21:18:59.873Z,25.08
2022-12-12T21:21:26.875Z,22.88
2022-12-12T21:23:53.750Z,21.40
2022-12-12T21:26:28.484Z,25.43
2022-12-12T21:28:56.480Z,23.25
2022-12-12T21:31:25.596Z,24.15
2022-12-12T21:33:52.328Z,23.85
2022-12-12T21:36:21.502Z,24.45
2022-12-12T21:38:48.635Z,18.40
2022-12-12T21:41:17.953Z,19.70
2022-12-12T21:43:45.482Z,19.13
2022-12-12T21:46:14.376Z,20.10
2022-12-12T21:48:41.727Z,22.33
2022-12-12T21:51:13.026Z,20.40
2022-12-12T21:53:39.552Z,20.73
2022-12-12T21:56:12.514Z,19.13
2022-12-12T21:58:40.982Z,22.20
2022-12-12T22:01:10.411Z,21.23
2022-12-12T22:03:37.410Z,19.52
2022-12-12T22:06:18.354Z,21.00
2022-12-12T22:08:46.520Z,21.38
2022-12-12T22:11:14.521Z,18.77
2022-12-12T22:14:01.249Z,20.83
2022-12-12T22:16:33.384Z,19.45
2022-12-12T22:19:05.824Z,18.10
2022-12-12T22:21:33.521Z,18.20
2022-12-12T22:24:00.411Z,24.23
2022-12-12T22:26:32.853Z,20.42
2022-12-12T22:29:09.787Z,25.10
2022-12-12T22:31:38.420Z,27.95
2022-12-12T22:34:12.668Z,29.57
2022-12-12T22:36:39.691Z,26.63
2022-12-12T22:39:11.775Z,23.60
2022-12-12T22:41:38.425Z,25.17
2022-12-12T22:44:06.617Z,21.73
2022-12-12T22:46:34.488Z,23.35
2022-12-12T22:49:02.547Z,25.30
2022-12-12T22:51:38.696Z,24.88
2022-12-12T22:54:05.824Z,30.13
2022-12-12T22:56:34.557Z,26.20
2022-12-12T22:59:01.192Z,25.85
2022-12-12T23:01:28.406Z,26.40
2022-12-12T23:03:55.604Z,31.30
2022-12-12T23:06:33.825Z,26.52
2022-12-12T23:09:03.815Z,25.48
2022-12-12T23:11:31.449Z,22.33
2022-12-12T23:14:06.525Z,19.70
2022-12-12T23:16:36.402Z,23.02
2022-12-12T23:19:05.098Z,18.15
2022-12-12T23:21:32.487Z,22.33
2022-12-12T23:23:59.092Z,19.73
2022-12-12T23:26:29.871Z,22.65
2022-12-12T23:28:57.860Z,19.83
2022-12-12T23:31:27.382Z,21.73
2022-12-12T23:33:56.471Z,17.23
2022-12-12T23:36:23.771Z,27.73
2022-12-12T23:38:55.471Z,17.05
2022-12-12T23:41:22.103Z,18.83
2022-12-12T23:43:49.792Z,22.17
2022-12-12T23:46:28.581Z,24.58
2022-12-12T23:49:19.220Z,25.05
2022-12-12T23:51:49.012Z,19.37
2022-12-12T23:54:18.234Z,26.05
2022-12-12T23:56:45.020Z,29.30
2022-12-12T23:59:17.388Z,21.70
